TAF Text Data
IDs:
Format:
Raw Decoded Include METAR

Data at: 0945 UTC 20 Sep 2019

KBWI 200840Z 2009/2112 00000KT P6SM FEW250
  FM201300 25004KT P6SM SKC
  FM202300 20004KT P6SM SKC